Time;durP1;ratioP1;P1;durP2;ratioP2;P2;SDS_P1;SDS_P2;PMS_P1;PMS_P2;Temp;Humidity;BMP_temperature;BMP_pressure;BME280_temperature;BME280_humidity;BME280_pressure;Samples;Min_cycle;Max_cycle;Signal;HPM_P1;HPM_P2
2022/08/15 00:01:08;;;;;;;18.42;11.48;;;28.20;99.90;;;;;;1825093;77;21220;-70
2022/08/15 00:03:41;;;;;;;17.57;12.40;;;28.20;99.90;;;;;;1816550;78;21611;-70
2022/08/15 00:06:19;;;;;;;17.23;12.15;;;28.20;99.90;;;;;;1817642;77;21108;-69
2022/08/15 00:08:54;;;;;;;17.67;11.45;;;28.20;99.90;;;;;;1823434;77;21601;-70
2022/08/15 00:11:27;;;;;;;16.65;12.07;;;28.30;99.90;;;;;;1830107;78;21136;-70
2022/08/15 00:14:03;;;;;;;61.00;43.15;;;28.20;99.90;;;;;;1815251;78;21183;-70
2022/08/15 00:16:36;;;;;;;28.85;19.37;;;28.20;99.90;;;;;;1816897;78;21872;-70
2022/08/15 00:19:10;;;;;;;20.57;13.00;;;28.20;99.90;;;;;;1823062;78;21155;-69
2022/08/15 00:21:44;;;;;;;15.63;12.33;;;28.20;99.90;;;;;;1821125;78;21738;-70
2022/08/15 00:24:19;;;;;;;20.17;13.10;;;28.20;99.90;;;;;;1817864;77;21226;-71
2022/08/15 00:26:52;;;;;;;20.37;14.07;;;28.20;99.90;;;;;;1781104;80;21107;-71
2022/08/15 00:29:26;;;;;;;20.20;15.93;;;28.20;99.90;;;;;;1780555;79;21286;-69
2022/08/15 00:32:01;;;;;;;20.37;14.43;;;28.10;99.90;;;;;;1783329;80;21234;-70
2022/08/15 00:34:33;;;;;;;24.23;15.28;;;28.10;99.90;;;;;;1811536;78;21157;-70
2022/08/15 00:37:10;;;;;;;15.65;12.00;;;28.10;99.90;;;;;;1828270;78;21128;-70
2022/08/15 00:39:39;;;;;;;16.20;11.85;;;28.20;99.90;;;;;;1832948;77;21509;-70
2022/08/15 00:42:11;;;;;;;17.23;13.03;;;28.10;99.90;;;;;;1827630;78;21163;-69
2022/08/15 00:44:46;;;;;;;20.35;11.75;;;28.20;99.90;;;;;;1829873;78;21185;-70
2022/08/15 00:47:20;;;;;;;17.85;12.05;;;28.20;99.90;;;;;;1827196;78;21246;-71
2022/08/15 00:49:52;;;;;;;19.15;14.28;;;28.20;99.90;;;;;;1832800;77;21739;-69
2022/08/15 00:52:27;;;;;;;20.90;14.83;;;28.20;99.90;;;;;;1822846;78;21254;-70
2022/08/15 00:55:02;;;;;;;20.85;13.75;;;28.20;99.90;;;;;;1820308;78;21204;-70
2022/08/15 00:57:36;;;;;;;16.15;13.03;;;28.20;99.90;;;;;;1788514;79;21727;-69
2022/08/15 01:00:11;;;;;;;16.02;11.75;;;28.20;99.90;;;;;;1777808;78;21703;-71
2022/08/15 01:02:44;;;;;;;16.82;11.73;;;28.20;99.90;;;;;;1796595;78;21209;-70
2022/08/15 01:05:16;;;;;;;17.37;12.63;;;28.20;99.90;;;;;;1795190;79;21120;-69
2022/08/15 01:07:48;;;;;;;19.50;14.03;;;28.20;99.90;;;;;;1811643;78;21160;-71
2022/08/15 01:10:20;;;;;;;20.08;13.48;;;28.20;99.90;;;;;;1799683;79;21102;-70
2022/08/15 01:12:53;;;;;;;16.27;13.05;;;28.20;99.90;;;;;;1799603;78;21133;-69
2022/08/15 01:15:24;;;;;;;19.32;14.13;;;28.20;99.90;;;;;;1806378;78;21130;-70
2022/08/15 01:17:57;;;;;;;19.87;13.15;;;28.20;99.90;;;;;;1798511;79;21124;-70
2022/08/15 01:20:32;;;;;;;18.75;14.25;;;28.20;99.90;;;;;;1801656;79;21102;-70
2022/08/15 01:23:06;;;;;;;20.20;13.85;;;28.20;99.90;;;;;;1808082;78;21095;-70
2022/08/15 01:25:39;;;;;;;22.27;13.30;;;28.30;99.90;;;;;;1818508;78;21201;-70
2022/08/15 01:28:14;;;;;;;15.93;12.40;;;28.30;99.90;;;;;;1831331;76;21116;-70
2022/08/15 01:30:48;;;;;;;20.15;13.93;;;28.30;99.90;;;;;;1820388;77;21191;-71
2022/08/15 01:33:22;;;;;;;19.02;13.68;;;28.30;99.90;;;;;;1823520;77;21175;-69
2022/08/15 01:35:58;;;;;;;18.62;13.70;;;28.40;99.90;;;;;;1815138;78;21173;-70
2022/08/15 01:38:32;;;;;;;19.30;13.95;;;28.40;99.90;;;;;;1815211;78;21175;-71
2022/08/15 01:41:07;;;;;;;19.40;13.88;;;28.40;99.90;;;;;;1812863;77;21237;-70
2022/08/15 01:43:42;;;;;;;18.75;13.90;;;28.40;99.90;;;;;;1834024;78;21077;-70
2022/08/15 01:46:15;;;;;;;21.60;15.03;;;28.40;99.90;;;;;;1821781;77;21228;-70
2022/08/15 01:48:49;;;;;;;17.45;13.65;;;28.50;99.90;;;;;;1818821;77;21683;-70
2022/08/15 01:51:21;;;;;;;18.32;12.53;;;28.50;99.90;;;;;;1811662;78;22215;-71
2022/08/15 01:53:55;;;;;;;15.45;11.68;;;28.50;99.90;;;;;;1812744;77;21216;-70
2022/08/15 01:56:30;;;;;;;17.35;13.20;;;28.60;99.90;;;;;;1815947;77;21128;-71
2022/08/15 01:59:03;;;;;;;18.20;13.05;;;28.60;99.90;;;;;;1824529;77;21634;-70
2022/08/15 02:01:42;;;;;;;17.45;12.63;;;28.60;99.90;;;;;;1816500;77;21119;-72
2022/08/15 02:04:12;;;;;;;16.17;12.07;;;28.60;99.90;;;;;;1821313;77;21117;-70
2022/08/15 02:06:46;;;;;;;12.78;10.68;;;28.60;99.90;;;;;;1845210;77;21453;-70
2022/08/15 02:09:20;;;;;;;14.13;10.15;;;28.60;99.90;;;;;;1848200;76;21618;-70
2022/08/15 02:11:53;;;;;;;13.70;10.43;;;28.70;99.90;;;;;;1845207;76;21162;-71
2022/08/15 02:14:26;;;;;;;16.10;10.93;;;28.70;99.90;;;;;;1848895;76;21118;-70
2022/08/15 02:16:59;;;;;;;17.25;11.40;;;28.70;99.90;;;;;;1838235;78;21209;-71
2022/08/15 02:19:30;;;;;;;15.20;10.43;;;28.70;99.90;;;;;;1847546;76;21103;-70
2022/08/15 02:22:04;;;;;;;15.50;10.25;;;28.80;99.90;;;;;;1787668;78;21198;-71
2022/08/15 02:24:37;;;;;;;15.28;9.45;;;28.80;99.90;;;;;;1824167;77;21265;-72
2022/08/15 02:27:09;;;;;;;14.85;10.95;;;28.80;99.90;;;;;;1801373;78;21242;-72
2022/08/15 02:29:41;;;;;;;18.27;11.38;;;28.80;99.90;;;;;;1790323;79;21662;-72
2022/08/15 02:32:47;;;;;;;15.63;11.53;;;28.80;99.90;;;;;;1782212;78;21213;-71
2022/08/15 02:35:19;;;;;;;18.17;11.55;;;28.90;99.90;;;;;;1814196;77;21733;-71
2022/08/15 02:37:52;;;;;;;18.57;13.03;;;28.90;99.90;;;;;;1778192;79;21144;-70
2022/08/15 02:40:24;;;;;;;18.55;12.53;;;29.00;99.90;;;;;;1782652;78;21097;-72
2022/08/15 02:42:58;;;;;;;15.35;12.05;;;29.00;99.90;;;;;;1762112;80;21220;-69
2022/08/15 02:45:34;;;;;;;18.73;11.73;;;29.00;99.90;;;;;;1783074;79;21765;-70
2022/08/15 02:48:03;;;;;;;16.30;12.00;;;29.10;99.90;;;;;;1779960;79;21157;-70
2022/08/15 02:50:36;;;;;;;18.70;12.53;;;29.10;99.90;;;;;;1751346;80;21246;-71
2022/08/15 02:53:10;;;;;;;17.52;12.50;;;29.00;99.90;;;;;;1772280;80;21187;-71
2022/08/15 02:55:44;;;;;;;17.77;12.07;;;29.10;99.90;;;;;;1757539;80;21180;-71
2022/08/15 02:58:18;;;;;;;14.73;11.53;;;29.00;99.90;;;;;;1795029;79;21143;-71
2022/08/15 03:00:50;;;;;;;18.20;11.50;;;29.10;99.90;;;;;;1767802;80;21193;-71
2022/08/15 03:03:22;;;;;;;18.45;10.95;;;29.20;99.90;;;;;;1787833;78;21141;-71
2022/08/15 03:05:56;;;;;;;18.17;12.05;;;29.20;99.90;;;;;;1779266;80;21122;-71
2022/08/15 03:08:30;;;;;;;19.20;12.10;;;29.30;99.90;;;;;;1765832;80;21206;-70
2022/08/15 03:11:04;;;;;;;17.25;12.00;;;29.40;99.90;;;;;;1795722;78;21253;-70
2022/08/15 03:13:40;;;;;;;14.68;11.48;;;29.40;99.90;;;;;;1799921;78;22378;-71
2022/08/15 03:16:15;;;;;;;17.17;11.45;;;29.40;99.90;;;;;;1803889;78;21126;-71
2022/08/15 03:18:49;;;;;;;15.95;11.75;;;29.40;99.90;;;;;;1785099;79;21172;-71
2022/08/15 03:21:20;;;;;;;16.87;11.65;;;29.40;99.90;;;;;;1807734;78;21185;-71
2022/08/15 03:23:51;;;;;;;15.10;12.55;;;29.40;99.90;;;;;;1792909;78;21619;-71
2022/08/15 03:26:27;;;;;;;16.82;11.63;;;29.40;99.90;;;;;;1807738;78;21648;-71
2022/08/15 03:28:59;;;;;;;17.30;11.77;;;29.40;99.90;;;;;;1844923;77;21650;-71
2022/08/15 03:31:34;;;;;;;19.20;11.73;;;29.40;99.90;;;;;;1847981;77;21603;-71
2022/08/15 03:34:07;;;;;;;15.23;11.33;;;29.40;99.90;;;;;;1864106;76;21091;-72
2022/08/15 03:36:40;;;;;;;13.90;11.22;;;29.30;99.90;;;;;;1848261;76;21078;-70
2022/08/15 03:39:15;;;;;;;15.38;11.08;;;29.30;99.90;;;;;;1864548;76;21089;-70
2022/08/15 03:41:50;;;;;;;16.65;11.57;;;29.30;99.90;;;;;;1866001;76;21127;-70
2022/08/15 03:44:25;;;;;;;16.05;11.80;;;29.40;99.90;;;;;;1853600;76;21178;-69
2022/08/15 03:46:58;;;;;;;15.38;11.25;;;29.50;99.90;;;;;;1865900;76;21510;-70
2022/08/15 03:49:30;;;;;;;14.05;11.00;;;29.50;99.90;;;;;;1851149;77;21623;-69
2022/08/15 03:52:05;;;;;;;15.65;10.95;;;29.60;99.90;;;;;;1818492;78;21694;-70
2022/08/15 03:54:37;;;;;;;11.78;9.88;;;29.70;99.90;;;;;;1818179;78;21505;-70
2022/08/15 03:57:09;;;;;;;13.03;10.05;;;29.80;99.90;;;;;;1843123;76;21569;-71
2022/08/15 03:59:45;;;;;;;15.03;10.60;;;29.80;99.90;;;;;;1787983;79;21166;-69
2022/08/15 04:02:35;;;;;;;13.18;10.30;;;29.70;99.90;;;;;;1854684;76;21514;-70
2022/08/15 04:05:11;;;;;;;14.00;10.23;;;29.70;99.90;;;;;;1836984;77;21529;-69
2022/08/15 04:07:42;;;;;;;17.77;10.85;;;29.70;99.90;;;;;;1838351;77;21175;-69
2022/08/15 04:10:18;;;;;;;11.30;10.08;;;29.70;99.90;;;;;;1856223;77;21837;-70
2022/08/15 04:12:54;;;;;;;15.25;10.15;;;29.80;99.90;;;;;;1863547;77;21104;-70
2022/08/15 04:15:27;;;;;;;12.93;9.60;;;29.90;99.90;;;;;;1856768;77;21117;-70
2022/08/15 04:18:00;;;;;;;15.58;10.08;;;30.00;99.90;;;;;;1814164;78;21613;-70
2022/08/15 04:20:32;;;;;;;12.45;9.83;;;30.10;99.90;;;;;;1812259;78;21592;-70
2022/08/15 04:23:12;;;;;;;14.68;10.10;;;30.10;99.90;;;;;;1846405;77;21462;-71
2022/08/15 04:25:42;;;;;;;11.60;9.08;;;30.00;99.90;;;;;;1830375;77;21665;-71
2022/08/15 04:28:17;;;;;;;12.85;9.03;;;30.00;99.90;;;;;;1840537;77;21211;-70
2022/08/15 04:30:51;;;;;;;14.40;8.80;;;30.10;99.90;;;;;;1819437;76;21553;-71
2022/08/15 04:33:29;;;;;;;13.20;8.30;;;30.10;99.70;;;;;;1862213;76;21878;-71
2022/08/15 04:36:04;;;;;;;10.08;7.97;;;30.20;99.20;;;;;;1807509;79;21204;-71
2022/08/15 04:38:35;;;;;;;9.45;7.50;;;30.20;99.30;;;;;;1804419;79;21176;-70
2022/08/15 04:41:07;;;;;;;17.87;9.43;;;30.30;98.60;;;;;;1813812;78;21138;-71
2022/08/15 04:43:46;;;;;;;11.83;8.00;;;30.40;99.00;;;;;;1813183;77;21090;-71
2022/08/15 04:46:20;;;;;;;13.20;7.87;;;30.50;99.00;;;;;;1801950;79;21090;-70
2022/08/15 04:48:49;;;;;;;9.15;7.25;;;30.60;98.30;;;;;;1825877;77;21150;-70
2022/08/15 04:51:20;;;;;;;10.35;7.40;;;30.70;98.00;;;;;;1831810;78;21548;-71
2022/08/15 04:53:52;;;;;;;12.47;7.75;;;30.80;97.50;;;;;;1829629;77;21600;-70
2022/08/15 04:56:23;;;;;;;10.98;7.22;;;30.80;97.30;;;;;;1813688;78;22079;-71
2022/08/15 04:58:57;;;;;;;9.93;6.55;;;30.80;97.40;;;;;;1818438;78;21238;-71
2022/08/15 05:01:30;;;;;;;13.05;6.83;;;30.80;96.90;;;;;;1825852;78;21102;-71
2022/08/15 05:04:02;;;;;;;9.85;7.05;;;30.80;96.90;;;;;;1798286;78;21301;-71
2022/08/15 05:06:35;;;;;;;11.43;7.20;;;30.80;97.50;;;;;;1826397;77;21673;-70
2022/08/15 05:09:06;;;;;;;14.00;8.25;;;30.90;97.60;;;;;;1839942;77;21086;-70
2022/08/15 05:11:37;;;;;;;10.82;7.75;;;30.90;97.10;;;;;;1820162;79;21205;-71
2022/08/15 05:14:10;;;;;;;9.75;6.92;;;31.00;97.00;;;;;;1841902;77;21797;-70
2022/08/15 05:16:42;;;;;;;9.63;7.15;;;31.10;97.20;;;;;;1828499;77;21148;-69
2022/08/15 05:19:13;;;;;;;14.85;6.37;;;31.10;97.50;;;;;;1825207;78;21231;-69
2022/08/15 05:21:45;;;;;;;9.93;6.20;;;31.30;96.70;;;;;;1854796;77;21620;-71
2022/08/15 05:24:18;;;;;;;9.00;6.83;;;31.40;96.40;;;;;;1850406;76;21164;-70
2022/08/15 05:26:50;;;;;;;9.15;6.58;;;31.60;96.20;;;;;;1816553;79;21159;-70
2022/08/15 05:29:27;;;;;;;10.23;6.30;;;31.70;95.80;;;;;;1818922;77;21149;-70
2022/08/15 05:31:58;;;;;;;7.80;4.70;;;31.80;95.10;;;;;;1819476;78;21658;-70
2022/08/15 05:34:29;;;;;;;7.12;5.03;;;32.00;94.40;;;;;;1818721;79;21218;-71
2022/08/15 05:37:04;;;;;;;9.08;5.30;;;32.20;93.30;;;;;;1819973;77;21123;-70
2022/08/15 05:39:37;;;;;;;8.35;4.90;;;32.20;93.30;;;;;;1835185;77;21179;-69
2022/08/15 05:42:16;;;;;;;7.72;4.92;;;32.10;93.80;;;;;;1857328;77;21200;-70
2022/08/15 05:44:52;;;;;;;7.40;4.47;;;32.20;94.00;;;;;;1829248;77;21173;-70
2022/08/15 05:47:27;;;;;;;6.47;4.08;;;32.30;92.60;;;;;;1827268;77;21152;-71
2022/08/15 05:50:03;;;;;;;8.18;5.03;;;32.40;92.70;;;;;;1835144;77;21710;-69
2022/08/15 05:52:39;;;;;;;9.88;4.45;;;32.40;92.60;;;;;;1824537;78;21321;-70
2022/08/15 05:55:14;;;;;;;8.93;4.30;;;32.60;92.70;;;;;;1798155;77;21106;-71
2022/08/15 05:57:48;;;;;;;8.68;4.22;;;32.70;91.60;;;;;;1825223;76;21112;-70
2022/08/15 06:00:21;;;;;;;8.40;5.05;;;32.70;91.90;;;;;;1831306;77;21093;-69
2022/08/15 06:02:57;;;;;;;9.93;4.47;;;32.80;91.70;;;;;;1848281;77;21136;-70
2022/08/15 06:05:32;;;;;;;7.70;3.90;;;32.80;92.20;;;;;;1825961;76;21775;-69
2022/08/15 06:08:07;;;;;;;7.25;4.00;;;32.90;91.70;;;;;;1848954;76;21193;-70
2022/08/15 06:10:42;;;;;;;6.95;3.83;;;32.90;91.30;;;;;;1821927;76;21186;-71
2022/08/15 06:13:34;;;;;;;8.53;4.22;;;33.00;91.00;;;;;;1837257;78;21215;-70
2022/08/15 06:16:15;;;;;;;6.60;4.03;;;33.20;90.60;;;;;;1840277;77;21065;-70
2022/08/15 06:18:44;;;;;;;6.85;3.70;;;33.20;90.10;;;;;;1851747;76;21099;-70
2022/08/15 06:21:19;;;;;;;5.50;3.08;;;33.20;89.20;;;;;;1847462;76;21164;-70
2022/08/15 06:23:54;;;;;;;9.58;4.25;;;33.10;90.30;;;;;;1856783;76;21134;-70
2022/08/15 06:26:30;;;;;;;8.15;4.60;;;33.10;90.10;;;;;;1851393;77;21127;-70
2022/08/15 06:29:05;;;;;;;8.95;3.77;;;33.10;89.90;;;;;;1870708;75;21553;-69
2022/08/15 06:31:42;;;;;;;6.67;3.67;;;33.10;89.30;;;;;;1813062;78;21547;-70
2022/08/15 06:34:16;;;;;;;7.10;3.58;;;33.10;90.50;;;;;;1816482;77;21226;-69
2022/08/15 06:36:51;;;;;;;7.40;4.20;;;33.10;90.00;;;;;;1774408;78;21214;-70
2022/08/15 06:39:25;;;;;;;8.68;3.20;;;33.20;91.00;;;;;;1877540;76;21152;-70
2022/08/15 06:42:17;;;;;;;7.12;3.85;;;33.30;88.30;;;;;;1801276;79;21249;-71
2022/08/15 06:44:51;;;;;;;5.67;3.60;;;33.30;88.50;;;;;;1789937;79;21693;-69
2022/08/15 06:47:23;;;;;;;6.05;3.90;;;33.30;88.30;;;;;;1838264;77;21195;-69
2022/08/15 06:49:57;;;;;;;8.78;3.90;;;33.30;89.20;;;;;;1815608;79;21176;-70
2022/08/15 06:52:29;;;;;;;7.30;3.35;;;33.30;88.40;;;;;;1815140;79;21243;-71
2022/08/15 06:55:04;;;;;;;9.28;4.40;;;33.30;88.90;;;;;;1814291;79;21179;-69
2022/08/15 06:57:43;;;;;;;8.00;3.80;;;33.40;90.20;;;;;;1812270;79;21183;-70
2022/08/15 07:00:18;;;;;;;8.28;3.98;;;33.40;89.70;;;;;;1825778;77;21157;-71
2022/08/15 07:02:56;;;;;;;7.67;3.95;;;33.30;90.20;;;;;;1786658;79;21224;-71
2022/08/15 07:05:32;;;;;;;5.97;3.60;;;33.20;89.30;;;;;;1817107;78;21650;-70
2022/08/15 07:08:05;;;;;;;6.58;3.65;;;33.00;89.30;;;;;;1821642;76;21762;-70
2022/08/15 07:10:45;;;;;;;6.95;3.70;;;33.00;90.20;;;;;;1818974;77;21553;-71
2022/08/15 07:13:18;;;;;;;6.28;3.87;;;32.90;90.20;;;;;;1814325;78;21148;-70
2022/08/15 07:15:50;;;;;;;5.90;3.52;;;33.00;90.20;;;;;;1817706;79;21109;-70
2022/08/15 07:18:25;;;;;;;8.55;4.67;;;33.00;90.20;;;;;;1816133;79;21630;-69
2022/08/15 07:21:00;;;;;;;11.22;5.60;;;33.00;90.60;;;;;;1812086;78;21162;-70
2022/08/15 07:23:44;;;;;;;12.75;6.78;;;33.00;90.20;;;;;;1813718;78;21163;-69
2022/08/15 07:26:17;;;;;;;12.93;6.85;;;32.90;90.30;;;;;;1796857;79;21632;-71
2022/08/15 07:28:51;;;;;;;11.60;6.20;;;33.00;90.40;;;;;;1819363;77;21222;-71
2022/08/15 07:31:24;;;;;;;10.82;8.38;;;32.90;90.10;;;;;;1796705;79;21206;-71
2022/08/15 07:33:58;;;;;;;5.20;2.90;;;32.90;90.20;;;;;;1799854;79;21636;-70
2022/08/15 07:36:32;;;;;;;5.92;3.67;;;32.90;90.20;;;;;;1815028;79;21545;-70
2022/08/15 07:39:06;;;;;;;8.50;3.52;;;32.90;90.00;;;;;;1782066;79;21276;-71
2022/08/15 07:41:39;;;;;;;4.17;3.25;;;32.80;89.20;;;;;;1800688;77;21194;-71
2022/08/15 07:44:14;;;;;;;7.25;3.60;;;32.80;89.00;;;;;;1803654;77;21184;-70
2022/08/15 07:46:49;;;;;;;6.70;3.10;;;32.90;90.10;;;;;;1784320;78;21162;-70
2022/08/15 07:49:27;;;;;;;7.37;3.65;;;33.00;89.80;;;;;;1801105;77;21180;-70
2022/08/15 07:52:01;;;;;;;5.80;3.37;;;33.10;90.00;;;;;;1805948;79;21207;-70
2022/08/15 07:54:35;;;;;;;8.30;3.00;;;33.20;89.60;;;;;;1806305;79;21106;-70
2022/08/15 07:57:09;;;;;;;7.12;3.42;;;33.20;88.90;;;;;;1823585;77;21187;-70
2022/08/15 07:59:40;;;;;;;8.30;3.70;;;33.30;90.10;;;;;;1827252;77;21192;-70
2022/08/15 08:02:15;;;;;;;8.13;3.10;;;33.30;89.90;;;;;;1816708;78;21220;-70
2022/08/15 08:04:48;;;;;;;7.37;3.22;;;33.30;89.90;;;;;;1837658;78;21200;-70
2022/08/15 08:07:23;;;;;;;7.60;3.35;;;33.30;89.90;;;;;;1801342;78;21162;-71
2022/08/15 08:09:57;;;;;;;6.33;3.70;;;33.30;90.00;;;;;;1782672;78;21146;-70
2022/08/15 08:12:32;;;;;;;5.67;3.37;;;33.20;90.20;;;;;;1808708;77;21239;-69
2022/08/15 08:15:06;;;;;;;7.95;3.22;;;33.10;90.30;;;;;;1758145;80;21123;-69
2022/08/15 08:17:43;;;;;;;8.08;3.40;;;33.10;90.60;;;;;;1756784;80;21135;-70
2022/08/15 08:20:16;;;;;;;5.55;3.37;;;33.00;90.60;;;;;;1754129;80;21162;-69
2022/08/15 08:22:51;;;;;;;6.78;4.10;;;33.00;90.50;;;;;;1727763;81;21669;-70
2022/08/15 08:25:25;;;;;;;6.53;3.08;;;33.00;90.60;;;;;;1805664;78;21184;-70
2022/08/15 08:28:00;;;;;;;5.15;3.37;;;32.90;90.90;;;;;;1821603;77;21244;-71
2022/08/15 08:30:35;;;;;;;5.35;3.12;;;32.80;90.60;;;;;;1840255;77;21242;-71
2022/08/15 08:33:09;;;;;;;6.30;4.10;;;32.80;90.60;;;;;;1819484;77;21134;-71
2022/08/15 08:35:43;;;;;;;6.92;3.47;;;32.70;90.50;;;;;;1824611;78;21612;-71
2022/08/15 08:38:22;;;;;;;10.58;3.58;;;32.80;90.60;;;;;;1825491;77;21517;-70
2022/08/15 08:43:32;;;;;;;6.92;4.08;;;32.70;90.50;;;;;;1793935;80;21321;-71
2022/08/15 08:46:06;;;;;;;5.33;2.98;;;32.60;90.40;;;;;;1820288;77;21674;-70
2022/08/15 08:48:42;;;;;;;8.08;3.70;;;32.60;90.80;;;;;;1845745;77;21109;-71
2022/08/15 08:51:16;;;;;;;6.65;3.42;;;32.70;91.00;;;;;;1840474;77;21762;-70
2022/08/15 08:54:08;;;;;;;7.87;3.35;;;32.60;90.10;;;;;;1824220;77;21206;-71
2022/08/15 08:56:44;;;;;;;8.45;3.70;;;32.60;90.40;;;;;;1797618;78;21191;-70
2022/08/15 08:59:18;;;;;;;7.50;3.60;;;32.70;90.60;;;;;;1743021;82;21181;-71
2022/08/15 09:01:52;;;;;;;8.70;3.42;;;32.70;90.70;;;;;;1809913;78;21648;-71
2022/08/15 09:04:29;;;;;;;6.22;3.15;;;32.70;90.90;;;;;;1783180;79;21160;-70
2022/08/15 09:07:03;;;;;;;8.33;3.62;;;32.70;90.50;;;;;;1785798;79;21105;-71
2022/08/15 09:09:38;;;;;;;8.35;3.83;;;32.70;90.40;;;;;;1786153;79;21203;-70
2022/08/15 09:14:52;;;;;;;7.25;2.80;;;32.70;90.00;;;;;;1791532;79;21192;-71
2022/08/15 09:17:26;;;;;;;5.20;2.72;;;32.70;89.30;;;;;;1782172;79;21215;-71
2022/08/15 09:20:01;;;;;;;6.92;2.90;;;32.70;89.00;;;;;;1783438;78;21597;-70
2022/08/15 09:22:33;;;;;;;7.83;2.42;;;32.70;89.80;;;;;;1787059;78;21677;-70
2022/08/15 09:25:06;;;;;;;8.70;3.55;;;32.70;90.00;;;;;;1790960;79;21200;-70
2022/08/15 09:27:40;;;;;;;6.40;2.70;;;32.70;90.20;;;;;;1789532;78;21126;-70
2022/08/15 09:30:13;;;;;;;6.83;2.75;;;32.70;90.20;;;;;;1777365;79;21145;-71
2022/08/15 09:32:51;;;;;;;6.40;3.22;;;32.60;89.20;;;;;;1777881;79;21227;-72
2022/08/15 09:35:27;;;;;;;5.87;3.37;;;32.60;90.80;;;;;;1800119;79;21141;-71
2022/08/15 09:38:00;;;;;;;5.10;2.45;;;32.50;91.50;;;;;;1794324;79;21128;-71
2022/08/15 09:40:38;;;;;;;5.22;3.17;;;32.40;91.60;;;;;;1780081;79;21745;-77
2022/08/15 09:43:12;;;;;;;6.28;3.02;;;32.20;91.90;;;;;;1779033;79;21168;-85
2022/08/15 09:45:47;;;;;;;6.85;3.00;;;31.80;92.30;;;;;;1783272;79;21152;-84
2022/08/15 09:48:21;;;;;;;5.17;2.95;;;31.60;92.40;;;;;;1788208;79;21157;-83
2022/08/15 09:50:57;;;;;;;5.50;2.20;;;31.40;92.80;;;;;;1792067;77;21187;-84
2022/08/15 09:53:31;;;;;;;6.30;2.67;;;31.20;92.60;;;;;;1787580;79;21224;-84
2022/08/15 09:56:06;;;;;;;6.95;2.33;;;31.00;92.60;;;;;;1786483;78;21115;-84
2022/08/15 09:58:41;;;;;;;5.90;2.50;;;30.90;92.60;;;;;;1787837;79;21201;-84
2022/08/15 10:01:18;;;;;;;4.65;2.40;;;30.90;92.90;;;;;;1784397;79;21151;-83
2022/08/15 10:03:52;;;;;;;6.28;2.40;;;30.70;93.10;;;;;;1796254;79;21212;-83
2022/08/15 10:06:27;;;;;;;;;;;30.60;93.50;;;;;;1790887;79;21173;-83
2022/08/15 10:09:02;;;;;;;8.13;2.80;;;30.50;94.00;;;;;;1787488;79;20222;-82
2022/08/15 10:11:40;;;;;;;9.40;3.52;;;30.40;95.30;;;;;;1785052;80;21288;-82
2022/08/15 10:14:15;;;;;;;19.00;6.37;;;30.30;96.00;;;;;;1787332;78;21937;-83
2022/08/15 10:16:52;;;;;;;16.20;7.58;;;30.00;97.10;;;;;;1791374;78;21099;-80
2022/08/15 10:19:27;;;;;;;7.75;3.42;;;29.60;97.30;;;;;;1784602;79;21560;-82
2022/08/15 10:22:02;;;;;;;7.33;3.05;;;29.10;96.90;;;;;;1795080;79;21167;-83
2022/08/15 10:24:38;;;;;;;7.10;3.12;;;28.90;97.10;;;;;;1786350;79;21088;-83
2022/08/15 10:27:17;;;;;;;6.80;2.77;;;28.60;97.90;;;;;;1786799;77;21193;-82
2022/08/15 10:29:48;;;;;;;6.92;2.55;;;28.40;99.40;;;;;;1786953;80;21237;-81
2022/08/15 10:32:28;;;;;;;6.80;2.60;;;28.20;99.00;;;;;;1786181;79;21168;-84
2022/08/15 10:34:59;;;;;;;12.33;3.05;;;28.00;99.70;;;;;;1787969;79;21266;-83
2022/08/15 10:37:34;;;;;;;7.67;2.83;;;27.90;99.90;;;;;;1806989;78;21180;-83
2022/08/15 10:40:11;;;;;;;6.15;2.40;;;27.70;99.90;;;;;;1813135;79;21836;-83
2022/08/15 10:42:45;;;;;;;6.30;3.12;;;27.70;99.80;;;;;;1807976;77;21149;-83
2022/08/15 10:45:19;;;;;;;5.67;2.60;;;27.60;99.90;;;;;;1774975;79;21184;-83
2022/08/15 10:47:54;;;;;;;7.42;2.22;;;27.60;99.90;;;;;;1752461;80;21403;-83
2022/08/15 10:50:28;;;;;;;6.78;2.12;;;27.60;99.90;;;;;;1755023;80;21178;-81
2022/08/15 10:53:07;;;;;;;6.20;2.30;;;27.60;99.90;;;;;;1814248;76;21144;-83
2022/08/15 10:55:40;;;;;;;5.90;2.27;;;27.60;99.90;;;;;;1778070;80;21708;-82
2022/08/15 10:58:15;;;;;;;4.37;2.20;;;27.60;99.90;;;;;;1766066;80;21164;-83
2022/08/15 11:00:51;;;;;;;4.50;1.87;;;27.60;99.90;;;;;;1789518;79;21166;-82
2022/08/15 11:03:29;;;;;;;6.95;2.30;;;27.50;99.90;;;;;;1761629;79;21251;-84
2022/08/15 11:06:06;;;;;;;11.22;2.50;;;27.50;99.90;;;;;;1768960;80;21266;-82
2022/08/15 11:08:39;;;;;;;8.88;3.12;;;27.50;99.90;;;;;;1820033;78;21730;-82
2022/08/15 11:11:12;;;;;;;6.35;3.10;;;27.30;99.90;;;;;;1778426;80;21113;-82
2022/08/15 11:13:47;;;;;;;4.30;2.30;;;27.30;99.90;;;;;;1795440;80;21203;-83
2022/08/15 11:16:22;;;;;;;4.40;2.05;;;27.30;99.90;;;;;;1793815;79;21180;-83
2022/08/15 11:18:58;;;;;;;8.45;1.67;;;27.20;99.90;;;;;;1800763;78;21172;-83
2022/08/15 11:21:35;;;;;;;4.75;1.40;;;27.00;99.90;;;;;;1770041;80;21220;-82
2022/08/15 11:24:09;;;;;;;3.83;1.57;;;26.90;99.90;;;;;;1809987;78;21135;-82
2022/08/15 11:26:45;;;;;;;5.22;1.75;;;26.80;99.90;;;;;;1792380;79;21113;-84
2022/08/15 11:29:20;;;;;;;5.10;2.52;;;26.80;99.90;;;;;;1768262;79;21146;-84
2022/08/15 11:31:54;;;;;;;4.72;2.37;;;26.80;99.90;;;;;;1789751;78;21128;-84
2022/08/15 11:34:28;;;;;;;4.85;2.20;;;26.80;99.90;;;;;;1816272;78;21223;-85
2022/08/15 11:37:05;;;;;;;3.83;1.70;;;26.70;99.90;;;;;;1786131;78;21196;-83
2022/08/15 11:39:40;;;;;;;6.03;2.47;;;26.60;99.90;;;;;;1791627;78;21247;-84
2022/08/15 11:42:13;;;;;;;5.05;1.80;;;26.60;99.90;;;;;;1798415;78;21116;-84
2022/08/15 11:44:48;;;;;;;5.90;1.45;;;26.50;99.90;;;;;;1799358;78;21176;-85
2022/08/15 11:47:20;;;;;;;6.45;1.90;;;26.40;99.90;;;;;;1805641;79;21083;-84
2022/08/15 11:49:54;;;;;;;6.05;2.20;;;26.40;99.90;;;;;;1786958;79;21188;-83
2022/08/15 11:52:31;;;;;;;5.55;2.17;;;26.30;99.90;;;;;;1791371;79;21203;-85
2022/08/15 11:55:05;;;;;;;4.15;1.60;;;26.40;99.90;;;;;;1788257;78;21248;-84
2022/08/15 11:57:38;;;;;;;4.33;1.92;;;26.40;99.90;;;;;;1901194;73;21120;-84
2022/08/15 12:00:14;;;;;;;5.30;1.70;;;26.40;99.90;;;;;;1920886;73;21124;-84
2022/08/15 12:02:46;;;;;;;5.53;1.60;;;26.40;99.90;;;;;;1917745;73;21177;-82
2022/08/15 12:05:20;;;;;;;1.70;0.90;;;26.40;99.90;;;;;;1925896;73;21211;-83
2022/08/15 12:07:55;;;;;;;2.27;0.93;;;26.30;99.90;;;;;;1929989;73;21498;-82
2022/08/15 12:10:30;;;;;;;2.80;0.90;;;26.30;99.90;;;;;;1893764;74;21138;-82
2022/08/15 12:13:03;;;;;;;5.90;1.67;;;26.20;99.90;;;;;;1938033;73;21160;-82
2022/08/15 12:15:36;;;;;;;5.53;1.67;;;26.20;99.90;;;;;;1920942;73;21198;-83
2022/08/15 12:18:10;;;;;;;4.28;1.40;;;26.20;99.90;;;;;;1927772;73;21622;-82
2022/08/15 12:20:48;;;;;;;1.67;0.90;;;26.20;99.90;;;;;;1913225;73;21139;-83
2022/08/15 12:26:03;;;;;;;4.33;1.40;;;26.20;99.90;;;;;;1880285;74;21121;-83
2022/08/15 12:28:38;;;;;;;3.10;1.10;;;26.30;99.90;;;;;;1850621;77;21176;-82
2022/08/15 12:31:13;;;;;;;3.08;1.22;;;26.20;99.90;;;;;;1832225;77;21558;-82
2022/08/15 12:33:47;;;;;;;2.55;1.10;;;26.20;99.90;;;;;;1847614;77;21086;-83
2022/08/15 12:36:19;;;;;;;2.30;0.90;;;26.20;99.90;;;;;;1851152;76;21126;-83
2022/08/15 12:38:51;;;;;;;2.95;0.90;;;26.10;99.90;;;;;;1862842;76;21298;-82
2022/08/15 12:41:27;;;;;;;1.87;0.80;;;26.10;99.90;;;;;;1847269;76;21321;-83
2022/08/15 12:43:59;;;;;;;2.52;0.90;;;26.00;99.90;;;;;;1841991;77;21234;-84
2022/08/15 12:46:32;;;;;;;2.05;0.90;;;26.00;99.90;;;;;;1816711;79;21154;-83
2022/08/15 12:49:05;;;;;;;2.25;0.82;;;25.90;99.90;;;;;;1850805;76;21191;-83
2022/08/15 12:51:37;;;;;;;3.33;1.20;;;25.80;99.90;;;;;;1855432;76;21726;-83
2022/08/15 12:54:10;;;;;;;3.22;1.20;;;25.80;99.90;;;;;;1823339;77;21270;-84
2022/08/15 12:56:44;;;;;;;2.62;1.30;;;25.70;99.90;;;;;;1860286;76;21133;-83
2022/08/15 12:59:17;;;;;;;6.12;3.42;;;25.70;99.90;;;;;;1827251;77;21076;-81
2022/08/15 13:01:50;;;;;;;3.87;1.95;;;25.70;99.90;;;;;;1862242;76;21102;-84
2022/08/15 13:04:23;;;;;;;4.78;1.60;;;25.70;99.90;;;;;;1825756;78;21165;-83
2022/08/15 13:06:58;;;;;;;4.90;1.70;;;25.60;99.90;;;;;;1799218;78;21167;-82
2022/08/15 13:09:32;;;;;;;4.30;1.82;;;25.60;99.90;;;;;;1848692;77;21739;-83
2022/08/15 13:12:05;;;;;;;5.17;1.52;;;25.60;99.90;;;;;;1817057;77;21160;-82
2022/08/15 13:14:37;;;;;;;2.87;1.02;;;25.60;99.90;;;;;;1850540;77;21147;-82
2022/08/15 13:17:09;;;;;;;3.83;1.20;;;25.60;99.90;;;;;;1817237;77;21604;-82
2022/08/15 13:24:55;;;;;;;2.05;0.80;;;25.60;99.90;;;;;;1849370;76;21246;-82
2022/08/15 13:27:26;;;;;;;2.72;1.00;;;25.50;99.90;;;;;;1829431;77;21128;-82
2022/08/15 13:29:59;;;;;;;2.08;0.93;;;25.50;99.90;;;;;;1861382;75;21229;-82